CheckWX is a tool to help pilots better visualize weather data.  It is not intended as a substitute for an official pre-flight weather briefing.

19:47:08 UTC

KMLU TAF
Monroe Regional Airport
Monroe, Louisiana, USA
KMLU 302321Z 3100/3124 02003KT P6SM SCT250 FM311400 04007KT P6SM SKC

May-31@
00:00 UTC

May-31 @ 00:00 UTC

May-31@
14:00 UTC

May-31 @ 14:00 UTC

TAF KMLU 302321Z 3100/3124 02003KT P6SM SCT250

Expired

Wind
  • 020° at 3 KTS
Cloud Levels
  • Scattered at 25,000' AGL

May-31@
14:00 UTC

May-31 @ 14:00 UTC

Jun-1@
00:00 UTC

Jun-1 @ 00:00 UTC

FM311400 04007KT P6SM SKC

From

From Standard forecast or significant change

Wind
  • 040° at 7 KTS
Cloud Levels
  • Clear skies